Saint-Joseph-De-Beauce, Canada
Current Conditions -  °F | °C
As of 8:00 AM on Monday 22 Dec 2014 (Local Time) from CYQB Reporting Station
Light Snow Light Snow  
Wind Chill: 16°   Ceiling: 2400
Heat Index: 16°   Visibility: 4mi
Dew Point: 12°   Wind: 3mph
Humidity: 86%   Direction: 350°N
Pressure: 30.44"   Gusts: NA
Location:  46.3°N, 70.87°W
Report Text: CYQB 221300Z 35003KT 4SM -SN BR FEW013 OVC024 M09/M11 A3044 RMK SC2SC6 SLP315
Loading
Personal Weather Stations






























Interactive Weather Map New forecast layout! Learn more

10-Day Weather Forecast

Advertisements
Track Severe Weather on mobile